createdAt,value
2018-12-17T00:01:56.088Z,101214.32
2018-12-17T00:04:27.581Z,101210.77
2018-12-17T00:06:58.906Z,101214.24
2018-12-17T00:09:27.995Z,101215.56
2018-12-17T00:11:57.109Z,101213.70
2018-12-17T00:14:26.162Z,101217.27
2018-12-17T00:16:55.766Z,101211.02
2018-12-17T00:19:24.823Z,101207.45
2018-12-17T00:21:54.302Z,101210.60
2018-12-17T00:24:23.686Z,101206.22
2018-12-17T00:26:52.683Z,101209.28
2018-12-17T00:29:22.502Z,101208.31
2018-12-17T00:31:51.662Z,101204.72
2018-12-17T00:34:20.684Z,101199.14
2018-12-17T00:36:50.094Z,101194.34
2018-12-17T00:39:19.109Z,101190.90
2018-12-17T00:41:48.163Z,101199.84
2018-12-17T00:44:18.205Z,101199.05
2018-12-17T00:46:47.226Z,101200.00
2018-12-17T00:49:16.276Z,101191.64
2018-12-17T00:51:45.795Z,101193.88
2018-12-17T00:54:15.191Z,101200.48
2018-12-17T00:56:44.211Z,101196.19
2018-12-17T00:59:13.512Z,101198.91
2018-12-17T01:01:42.553Z,101203.34
2018-12-17T01:04:12.603Z,101204.29
2018-12-17T01:06:41.629Z,101205.65
2018-12-17T01:09:10.794Z,101205.23
2018-12-17T01:11:40.472Z,101203.95
2018-12-17T01:14:09.811Z,101205.31
2018-12-17T01:16:39.805Z,101203.61
2018-12-17T01:19:08.844Z,101205.43
2018-12-17T01:21:38.418Z,101201.91
2018-12-17T01:24:07.569Z,101204.22
2018-12-17T01:26:36.566Z,101195.91
2018-12-17T01:29:06.130Z,101195.07
2018-12-17T01:31:35.960Z,101204.78
2018-12-17T01:34:05.233Z,101199.49
2018-12-17T01:36:34.730Z,101202.14
2018-12-17T01:39:05.507Z,101197.34
2018-12-17T01:41:34.867Z,101200.93
2018-12-17T01:44:03.914Z,101108.67
2018-12-17T01:46:32.957Z,101199.19
2018-12-17T01:49:02.317Z,101190.34
2018-12-17T01:51:31.417Z,101194.31
2018-12-17T01:54:00.442Z,101189.48
2018-12-17T01:56:29.549Z,101191.17
2018-12-17T01:58:59.142Z,101192.20
2018-12-17T02:01:28.301Z,101200.17
2018-12-17T02:03:58.195Z,101197.53
2018-12-17T02:06:27.262Z,101192.23
2018-12-17T02:08:56.342Z,101195.38
2018-12-17T02:11:25.751Z,101201.98
2018-12-17T02:13:55.474Z,101199.19
2018-12-17T02:16:24.506Z,101203.95
2018-12-17T02:18:54.054Z,101206.98
2018-12-17T02:21:23.149Z,101216.20
2018-12-17T02:23:53.870Z,101211.70
2018-12-17T02:26:22.969Z,101211.25
2018-12-17T02:28:52.002Z,101210.30
2018-12-17T02:31:21.406Z,101207.24
2018-12-17T02:33:50.435Z,101203.80
2018-12-17T02:36:19.584Z,101203.98
2018-12-17T02:38:48.917Z,101201.76
2018-12-17T02:41:18.178Z,101208.87
2018-12-17T02:43:47.699Z,101206.30
2018-12-17T02:46:17.083Z,101211.17
2018-12-17T02:48:46.277Z,101216.55
2018-12-17T02:51:15.366Z,101216.13
2018-12-17T02:53:45.792Z,101214.39
2018-12-17T02:56:14.982Z,101218.40
2018-12-17T02:58:44.301Z,101216.28
2018-12-17T03:01:14.142Z,101213.22
2018-12-17T03:03:43.297Z,101213.67
2018-12-17T03:06:12.433Z,101215.00
2018-12-17T03:08:41.768Z,101216.39
2018-12-17T03:11:10.884Z,101216.89
2018-12-17T03:13:39.902Z,101217.83
2018-12-17T03:16:09.632Z,101220.02
2018-12-17T03:18:38.816Z,101219.53
2018-12-17T03:21:07.859Z,101221.72
2018-12-17T03:23:37.287Z,101217.27
2018-12-17T03:26:06.354Z,101223.80
2018-12-17T03:28:35.367Z,101222.37
2018-12-17T03:31:04.705Z,101223.23
2018-12-17T03:33:33.761Z,101225.84
2018-12-17T03:36:02.993Z,101224.91
2018-12-17T03:38:32.377Z,101224.48
2018-12-17T03:41:01.405Z,101218.28
2018-12-17T03:43:30.550Z,101217.38
2018-12-17T03:46:00.235Z,101212.99
2018-12-17T03:48:29.470Z,101215.67
2018-12-17T03:50:58.514Z,101219.61
2018-12-17T03:53:27.862Z,101217.38
2018-12-17T03:55:56.883Z,101216.47
2018-12-17T03:58:25.907Z,101211.55
2018-12-17T04:00:55.257Z,101212.42
2018-12-17T04:03:24.435Z,101217.22
2018-12-17T04:05:53.472Z,101223.43
2018-12-17T04:08:22.853Z,101225.66
2018-12-17T04:10:51.942Z,101218.33
2018-12-17T04:13:21.905Z,101227.66
2018-12-17T04:15:51.267Z,101230.01
2018-12-17T04:18:20.284Z,101230.91
2018-12-17T04:20:49.547Z,101230.69
2018-12-17T04:23:18.952Z,101239.39
2018-12-17T04:25:48.042Z,101244.88
2018-12-17T04:28:17.220Z,101244.72
2018-12-17T04:30:46.758Z,101246.08
2018-12-17T04:33:15.782Z,101244.95
2018-12-17T04:35:44.928Z,101251.78
2018-12-17T04:38:14.343Z,101255.11
2018-12-17T04:40:43.433Z,101260.02
2018-12-17T04:43:12.554Z,101262.95
2018-12-17T04:45:42.036Z,101261.18
2018-12-17T04:48:11.753Z,101266.52
2018-12-17T04:50:41.414Z,101267.63
2018-12-17T04:53:10.500Z,101272.89
2018-12-17T04:55:39.514Z,101269.48
2018-12-17T04:58:09.056Z,101270.36
2018-12-17T05:00:38.071Z,101270.55
2018-12-17T05:03:07.082Z,101272.44
2018-12-17T05:05:36.437Z,101278.38
2018-12-17T05:08:05.561Z,101275.84
2018-12-17T05:10:35.397Z,101282.46
2018-12-17T05:13:04.743Z,101284.39
2018-12-17T05:15:33.794Z,101279.92
2018-12-17T05:18:02.847Z,101287.30
2018-12-17T05:20:32.247Z,101289.05
2018-12-17T05:23:01.560Z,101298.69
2018-12-17T05:25:30.584Z,101294.72
2018-12-17T05:28:00.197Z,101301.30
2018-12-17T05:30:30.146Z,101308.48
2018-12-17T05:32:59.977Z,101313.78
2018-12-17T05:35:29.151Z,101312.73
2018-12-17T05:38:00.599Z,101320.16
2018-12-17T05:40:30.446Z,101330.22
2018-12-17T05:42:59.621Z,101325.83
2018-12-17T05:45:29.458Z,101332.66
2018-12-17T05:47:58.530Z,101333.47
2018-12-17T05:50:27.609Z,101341.67
2018-12-17T05:52:56.924Z,101341.13
2018-12-17T05:55:25.942Z,101340.73
2018-12-17T05:57:55.016Z,101344.26
2018-12-17T06:00:25.171Z,101339.45
2018-12-17T06:02:54.303Z,101353.17
2018-12-17T06:05:23.813Z,101353.59
2018-12-17T06:07:53.133Z,101352.08
2018-12-17T06:10:22.908Z,101358.37
2018-12-17T06:12:52.051Z,101361.72
2018-12-17T06:15:21.454Z,101364.72
2018-12-17T06:17:50.487Z,101366.98
2018-12-17T06:20:19.555Z,101370.97
2018-12-17T06:22:48.889Z,101371.95
2018-12-17T06:25:17.909Z,101368.02
2018-12-17T06:27:46.961Z,101368.69
2018-12-17T06:30:16.280Z,101375.24
2018-12-17T06:32:45.325Z,101377.44
2018-12-17T06:35:14.326Z,101373.89
2018-12-17T06:37:43.844Z,101371.23
2018-12-17T06:40:12.898Z,101380.66
2018-12-17T06:42:42.081Z,101387.76
2018-12-17T06:45:11.527Z,101381.24
2018-12-17T06:47:40.599Z,101389.70
2018-12-17T06:50:09.822Z,101393.95
2018-12-17T06:52:39.215Z,101395.15
2018-12-17T06:55:08.336Z,101404.31
2018-12-17T06:57:37.562Z,101404.97
2018-12-17T07:00:08.373Z,101410.26
2018-12-17T07:02:37.541Z,101411.58
2018-12-17T07:05:06.965Z,101412.00
2018-12-17T07:07:39.384Z,101422.48
2018-12-17T07:10:08.534Z,101428.81
2018-12-17T07:12:37.741Z,101437.67
2018-12-17T07:15:07.713Z,101434.78
2018-12-17T07:17:36.736Z,101435.66
2018-12-17T07:20:06.289Z,101434.01
2018-12-17T07:22:35.601Z,101443.63
2018-12-17T07:25:05.174Z,101444.33
2018-12-17T07:27:34.170Z,101450.24
2018-12-17T07:30:03.513Z,101445.31
2018-12-17T07:32:32.563Z,101455.08
2018-12-17T07:35:01.605Z,101462.09
2018-12-17T07:37:31.309Z,101459.74
2018-12-17T07:40:00.362Z,101466.75
2018-12-17T07:42:29.470Z,101464.91
2018-12-17T07:44:58.810Z,101475.95
2018-12-17T07:47:27.818Z,101477.25
2018-12-17T07:49:56.817Z,101483.92
2018-12-17T07:52:26.256Z,101480.38
2018-12-17T07:54:55.239Z,101484.77
2018-12-17T07:57:24.239Z,101483.89
2018-12-17T07:59:56.652Z,101486.00
2018-12-17T08:02:24.498Z,101495.34
2018-12-17T08:04:53.523Z,101498.84
2018-12-17T08:07:22.702Z,101497.81
2018-12-17T08:09:51.709Z,101496.12
2018-12-17T08:12:21.149Z,101497.45
2018-12-17T08:14:50.229Z,101500.02
2018-12-17T08:17:19.290Z,101507.53
2018-12-17T08:19:48.463Z,101516.01
2018-12-17T08:22:17.685Z,101515.53
2018-12-17T08:24:46.705Z,101517.78
2018-12-17T08:27:15.737Z,101524.34
2018-12-17T08:29:44.760Z,101526.48
2018-12-17T08:32:13.762Z,101531.00
2018-12-17T08:34:42.882Z,101528.34
2018-12-17T08:37:12.713Z,101525.67
2018-12-17T08:39:41.726Z,101527.38
2018-12-17T08:42:11.065Z,101529.52
2018-12-17T08:44:40.336Z,101530.39
2018-12-17T08:47:09.426Z,101532.14
2018-12-17T08:49:38.473Z,101531.08
2018-12-17T08:52:07.497Z,101536.77
2018-12-17T08:54:36.539Z,101539.92
2018-12-17T08:57:06.741Z,101540.77
2018-12-17T08:59:35.850Z,101542.52
2018-12-17T09:02:05.062Z,101542.13
2018-12-17T09:04:34.119Z,101546.97
2018-12-17T09:07:03.358Z,101549.05
2018-12-17T09:09:32.534Z,101555.56
2018-12-17T09:12:01.586Z,101548.84
2018-12-17T09:14:30.610Z,101548.49
2018-12-17T09:17:00.128Z,101546.78
2018-12-17T09:19:29.550Z,101545.09
2018-12-17T09:21:58.570Z,101545.55
2018-12-17T09:24:27.729Z,101550.39
2018-12-17T09:26:57.139Z,101548.62
2018-12-17T09:29:26.153Z,101556.05
2018-12-17T09:31:55.212Z,101558.31
2018-12-17T09:34:24.358Z,101561.80
2018-12-17T09:36:53.507Z,101555.47
2018-12-17T09:39:22.641Z,101559.05
2018-12-17T09:41:52.214Z,101556.31
2018-12-17T09:44:21.721Z,101559.48
2018-12-17T09:46:51.220Z,101563.28
2018-12-17T09:49:20.450Z,101565.80
2018-12-17T09:51:49.508Z,101568.45
2018-12-17T09:54:18.543Z,101562.73
2018-12-17T09:56:48.093Z,101567.88
2018-12-17T09:59:17.204Z,101574.92
2018-12-17T10:01:48.669Z,101569.14
2018-12-17T10:04:17.735Z,101568.39
2018-12-17T10:06:46.875Z,101563.09
2018-12-17T10:09:16.538Z,101565.65
2018-12-17T10:11:45.545Z,101570.52
2018-12-17T10:14:14.562Z,101561.67
2018-12-17T10:16:43.962Z,101562.61
2018-12-17T10:19:12.958Z,101567.69
2018-12-17T10:21:41.977Z,101565.45
2018-12-17T10:24:11.214Z,101568.66
2018-12-17T10:26:40.275Z,101565.04
2018-12-17T10:29:09.394Z,101557.45
2018-12-17T10:31:38.942Z,101569.30
2018-12-17T10:34:07.957Z,101561.39
2018-12-17T10:36:37.003Z,101561.29
2018-12-17T10:39:08.067Z,101562.65
2018-12-17T10:41:38.150Z,101565.91
2018-12-17T10:44:09.301Z,101568.30
2018-12-17T10:46:38.537Z,101565.30
2018-12-17T10:49:07.582Z,101569.66
2018-12-17T10:51:36.919Z,101570.98
2018-12-17T10:54:05.993Z,101572.56
2018-12-17T10:56:35.032Z,101575.63
2018-12-17T10:59:04.514Z,101577.19
2018-12-17T11:01:38.925Z,101579.31
2018-12-17T11:04:16.911Z,101582.81
2018-12-17T11:06:45.938Z,101582.03
2018-12-17T11:09:15.354Z,101580.52
2018-12-17T11:11:44.734Z,101579.13
2018-12-17T11:14:14.251Z,101583.30
2018-12-17T11:16:43.295Z,101584.00
2018-12-17T11:19:12.367Z,101597.70
2018-12-17T11:21:41.371Z,101582.09
2018-12-17T11:24:10.386Z,101584.70
2018-12-17T11:26:39.457Z,101590.36
2018-12-17T11:29:09.549Z,101591.69
2018-12-17T11:31:41.679Z,101594.95
2018-12-17T11:34:10.691Z,101598.45
2018-12-17T11:36:39.715Z,101597.13
2018-12-17T11:39:10.474Z,101609.05
2018-12-17T11:41:39.489Z,101605.63
2018-12-17T11:44:08.520Z,101601.94
2018-12-17T11:46:37.907Z,101601.27
2018-12-17T11:49:06.920Z,101592.76
2018-12-17T11:51:35.925Z,101601.23
2018-12-17T11:54:05.090Z,101600.78
2018-12-17T11:56:46.866Z,101608.38
2018-12-17T11:59:15.914Z,101613.61
2018-12-17T12:01:46.914Z,101613.19
2018-12-17T12:04:15.954Z,101609.28
2018-12-17T12:06:45.070Z,101601.03
2018-12-17T12:09:18.560Z,101606.75
2018-12-17T12:11:48.323Z,101603.69
2018-12-17T12:14:17.325Z,101608.62
2018-12-17T12:16:46.353Z,101610.88
2018-12-17T12:19:15.395Z,101618.17
2018-12-17T12:21:44.410Z,101617.96
2018-12-17T12:24:13.463Z,101621.81
2018-12-17T12:26:42.473Z,101626.33
2018-12-17T12:29:11.530Z,101632.20
2018-12-17T12:31:41.376Z,101628.62
2018-12-17T12:34:10.367Z,101631.17
2018-12-17T12:36:39.404Z,101630.63
2018-12-17T12:39:08.557Z,101631.44
2018-12-17T12:41:39.584Z,101632.31
2018-12-17T12:44:08.999Z,101630.63
2018-12-17T12:46:38.201Z,101631.11
2018-12-17T12:49:08.729Z,101639.87
2018-12-17T12:51:37.746Z,101635.24
2018-12-17T12:54:07.496Z,101638.03
2018-12-17T12:56:36.836Z,101642.77
2018-12-17T12:59:06.534Z,101651.16
2018-12-17T13:01:35.550Z,101652.64
2018-12-17T13:04:04.866Z,101653.73
2018-12-17T13:06:33.903Z,101652.38
2018-12-17T13:09:03.054Z,101653.36
2018-12-17T13:11:32.094Z,101658.16
2018-12-17T13:14:02.079Z,101661.34
2018-12-17T13:16:31.126Z,101662.02
2018-12-17T13:19:00.172Z,101662.53
2018-12-17T13:21:29.311Z,101660.30
2018-12-17T13:23:58.334Z,101664.39
2018-12-17T13:26:27.357Z,101661.80
2018-12-17T13:28:56.391Z,101664.81
2018-12-17T13:31:25.564Z,101664.00
2018-12-17T13:33:55.018Z,101669.30
2018-12-17T13:36:24.024Z,101666.27
2018-12-17T13:38:53.066Z,101670.30
2018-12-17T13:41:22.308Z,101680.57
2018-12-17T13:43:51.305Z,101680.36
2018-12-17T13:46:21.409Z,101685.77
2018-12-17T13:48:50.910Z,101687.27
2018-12-17T13:51:26.101Z,101696.03
2018-12-17T13:53:59.773Z,101690.05
2018-12-17T13:56:29.359Z,101689.93
2018-12-17T13:58:58.361Z,101698.72
2018-12-17T14:01:27.745Z,101708.22
2018-12-17T14:03:56.763Z,101701.58
2018-12-17T14:06:25.782Z,101704.02
2018-12-17T14:08:55.342Z,101703.02
2018-12-17T14:11:24.358Z,101700.66
2018-12-17T14:13:53.390Z,101703.21
2018-12-17T14:16:26.580Z,101703.66
2018-12-17T14:19:01.018Z,101705.80
2018-12-17T14:21:35.256Z,101713.80
2018-12-17T14:24:04.387Z,101705.95
2018-12-17T14:26:33.736Z,101710.67
2018-12-17T14:29:02.753Z,101713.84
2018-12-17T14:34:02.798Z,101722.56
2018-12-17T14:36:31.831Z,101715.59
2018-12-17T14:39:00.841Z,101712.58
2018-12-17T14:41:29.896Z,101718.30
2018-12-17T14:44:03.889Z,101713.86
2018-12-17T14:46:37.469Z,101724.70
2018-12-17T14:49:06.515Z,101727.49
2018-12-17T14:51:36.382Z,101728.27
2018-12-17T14:54:05.446Z,101737.42
2018-12-17T14:56:34.469Z,101738.25
2018-12-17T14:59:03.586Z,101740.97
2018-12-17T15:01:35.899Z,101744.89
2018-12-17T15:04:04.230Z,101746.63
2018-12-17T15:06:33.323Z,101747.05
2018-12-17T15:09:02.347Z,101750.88
2018-12-17T15:11:32.379Z,101758.24
2018-12-17T15:14:02.539Z,101753.45
2018-12-17T15:16:31.536Z,101754.65
2018-12-17T15:19:00.535Z,101756.75
2018-12-17T15:21:29.943Z,101765.50
2018-12-17T15:23:58.950Z,101764.52
2018-12-17T15:26:28.057Z,101775.72
2018-12-17T15:28:57.269Z,101769.41
2018-12-17T15:31:27.736Z,101776.45
2018-12-17T15:33:57.134Z,101773.89
2018-12-17T15:36:26.340Z,101782.23
2018-12-17T15:38:56.243Z,101774.47
2018-12-17T15:41:25.310Z,101782.31
2018-12-17T15:43:54.609Z,101786.94
2018-12-17T15:46:23.847Z,101784.78
2018-12-17T15:48:52.888Z,101786.98
2018-12-17T15:51:22.619Z,101791.28
2018-12-17T15:53:51.839Z,101790.81
2018-12-17T15:56:21.133Z,101796.56
2018-12-17T15:58:53.321Z,101792.59
2018-12-17T16:01:23.442Z,101333.36
2018-12-17T16:03:52.472Z,101791.60
2018-12-17T16:06:21.555Z,101792.00
2018-12-17T16:08:50.918Z,101790.67
2018-12-17T16:11:19.966Z,101800.41
2018-12-17T16:13:49.003Z,101798.99
2018-12-17T16:16:18.318Z,101810.45
2018-12-17T16:18:47.427Z,101806.94
2018-12-17T16:21:16.496Z,101809.20
2018-12-17T16:23:45.909Z,101814.98
2018-12-17T16:26:15.589Z,101819.63
2018-12-17T16:28:45.374Z,101814.59
2018-12-17T16:31:14.729Z,101816.30
2018-12-17T16:33:43.773Z,101822.48
2018-12-17T16:36:14.608Z,101826.87
2018-12-17T16:38:44.017Z,101822.44
2018-12-17T16:41:17.429Z,101826.74
2018-12-17T16:43:46.487Z,101833.78
2018-12-17T16:46:15.497Z,101826.22
2018-12-17T16:48:44.533Z,101836.84
2018-12-17T16:51:13.615Z,101836.91
2018-12-17T16:53:42.609Z,101844.27
2018-12-17T16:56:11.959Z,101842.45
2018-12-17T16:58:41.333Z,101842.83
2018-12-17T17:01:10.426Z,101838.32
2018-12-17T17:03:39.509Z,101843.52
2018-12-17T17:06:08.828Z,101752.94
2018-12-17T17:08:37.897Z,101839.08
2018-12-17T17:11:07.113Z,101844.75
2018-12-17T17:13:36.542Z,101844.30
2018-12-17T17:16:05.613Z,101845.60
2018-12-17T17:18:35.050Z,101853.98
2018-12-17T17:21:04.198Z,101854.90
2018-12-17T17:23:33.497Z,101847.02
2018-12-17T17:26:02.642Z,101846.87
2018-12-17T17:28:31.698Z,101850.87
2018-12-17T17:31:00.753Z,101846.58
2018-12-17T17:33:30.067Z,101849.72
2018-12-17T17:35:59.399Z,101859.03
2018-12-17T17:38:28.404Z,101859.95
2018-12-17T17:40:58.320Z,101862.70
2018-12-17T17:43:28.457Z,101861.83
2018-12-17T17:45:57.462Z,101864.95
2018-12-17T17:48:26.482Z,101865.04
2018-12-17T17:50:55.493Z,101873.43
2018-12-17T17:53:24.602Z,101868.58
2018-12-17T17:55:53.606Z,101868.64
2018-12-17T17:58:22.930Z,101877.85
2018-12-17T18:00:52.174Z,101877.89
2018-12-17T18:03:21.422Z,101880.58
2018-12-17T18:05:50.783Z,101886.34
2018-12-17T18:08:19.821Z,101890.78
2018-12-17T18:10:48.858Z,101886.88
2018-12-17T18:13:18.365Z,101891.73
2018-12-17T18:15:47.427Z,101893.92
2018-12-17T18:18:16.434Z,101897.02
2018-12-17T18:20:45.491Z,101896.97
2018-12-17T18:23:14.504Z,101896.97
2018-12-17T18:25:43.527Z,101894.31
2018-12-17T18:28:13.836Z,101901.37
2018-12-17T18:30:42.850Z,101904.89
2018-12-17T18:33:11.907Z,101909.35
2018-12-17T18:35:40.950Z,101912.42
2018-12-17T18:38:10.077Z,101915.52
2018-12-17T18:40:39.102Z,101917.72
2018-12-17T18:43:08.170Z,101919.45
2018-12-17T18:45:37.189Z,101925.16
2018-12-17T18:48:06.253Z,101921.14
2018-12-17T18:50:35.464Z,101927.27
2018-12-17T18:53:04.906Z,101928.54
2018-12-17T18:55:34.035Z,101932.89
2018-12-17T18:58:03.074Z,101932.94
2018-12-17T19:00:32.237Z,101926.30
2018-12-17T19:03:01.245Z,101937.78
2018-12-17T19:05:30.727Z,101925.42
2018-12-17T19:08:00.215Z,101937.30
2018-12-17T19:10:33.570Z,101940.80
2018-12-17T19:13:03.277Z,101943.83
2018-12-17T19:15:32.372Z,101948.27
2018-12-17T19:18:01.525Z,101957.49
2018-12-17T19:20:30.593Z,101952.67
2018-12-17T19:22:59.615Z,101952.20
2018-12-17T19:25:28.698Z,101952.17
2018-12-17T19:27:57.739Z,101949.98
2018-12-17T19:30:27.252Z,101949.66
2018-12-17T19:32:57.516Z,101960.19
2018-12-17T19:35:26.722Z,101950.94
2018-12-17T19:37:56.445Z,101958.44
2018-12-17T19:40:25.924Z,101955.09
2018-12-17T19:42:55.018Z,101960.41
2018-12-17T19:45:24.109Z,101963.55
2018-12-17T19:47:53.222Z,101964.08
2018-12-17T19:50:22.242Z,101970.41
2018-12-17T19:52:51.335Z,101979.27
2018-12-17T19:55:20.515Z,101982.03
2018-12-17T19:57:49.582Z,101985.98
2018-12-17T20:00:18.606Z,101973.73
2018-12-17T20:02:48.285Z,101972.36
2018-12-17T20:05:17.535Z,101975.03
2018-12-17T20:07:47.879Z,101973.54
2018-12-17T20:10:24.037Z,101974.73
2018-12-17T20:12:53.106Z,101978.26
2018-12-17T20:15:22.506Z,101984.41
2018-12-17T20:17:52.379Z,101976.94
2018-12-17T20:20:21.842Z,101980.86
2018-12-17T20:22:51.110Z,101978.23
2018-12-17T20:25:20.138Z,101989.18
2018-12-17T20:27:49.201Z,101985.80
2018-12-17T20:30:18.330Z,101988.78
2018-12-17T20:32:53.384Z,101989.21
2018-12-17T20:35:18.452Z,101989.18
2018-12-17T20:37:47.902Z,101996.30
2018-12-17T20:40:17.014Z,101995.85
2018-12-17T20:42:46.341Z,101998.51
2018-12-17T20:45:15.566Z,101999.39
2018-12-17T20:47:45.168Z,102004.63
2018-12-17T20:50:14.518Z,102000.64
2018-12-17T20:52:43.756Z,102004.19
2018-12-17T20:55:14.101Z,102006.81
2018-12-17T20:57:43.992Z,102006.80
2018-12-17T21:00:13.131Z,102001.93
2018-12-17T21:02:42.222Z,102013.83
2018-12-17T21:05:11.665Z,102005.88
2018-12-17T21:07:40.666Z,102005.42
2018-12-17T21:10:10.343Z,102011.16
2018-12-17T21:12:39.966Z,101907.34
2018-12-17T21:15:09.203Z,102016.97
2018-12-17T21:17:39.213Z,102022.24
2018-12-17T21:20:08.773Z,102014.31
2018-12-17T21:22:37.864Z,102014.25
2018-12-17T21:25:07.124Z,102021.72
2018-12-17T21:27:36.378Z,102022.58
2018-12-17T21:30:06.193Z,102026.55
2018-12-17T21:32:35.217Z,102030.03
2018-12-17T21:35:05.204Z,102035.70
2018-12-17T21:37:35.099Z,102037.39
2018-12-17T21:40:05.024Z,102033.39
2018-12-17T21:42:34.112Z,102032.03
2018-12-17T21:45:03.440Z,102031.13
2018-12-17T21:47:32.522Z,102037.64
2018-12-17T21:50:01.705Z,102034.16
2018-12-17T21:52:30.797Z,102034.55
2018-12-17T21:55:01.144Z,102035.52
2018-12-17T21:57:30.186Z,102035.53
2018-12-17T21:59:59.305Z,102042.16
2018-12-17T22:02:28.832Z,102035.59
2018-12-17T22:04:57.887Z,102036.98
2018-12-17T22:07:27.990Z,102032.14
2018-12-17T22:09:57.332Z,102036.55
2018-12-17T22:12:26.422Z,102040.07
2018-12-17T22:14:55.571Z,102038.28
2018-12-17T22:17:25.032Z,102040.48
2018-12-17T22:19:54.034Z,102039.20
2018-12-17T22:22:23.078Z,102037.42
2018-12-17T22:24:52.132Z,102040.96
2018-12-17T22:27:21.242Z,102044.48
2018-12-17T22:29:50.269Z,102048.93
2018-12-17T22:32:19.409Z,102048.94
2018-12-17T22:34:49.103Z,102039.25
2018-12-17T22:37:18.578Z,102045.45
2018-12-17T22:39:47.916Z,102045.91
2018-12-17T22:42:16.950Z,102045.02
2018-12-17T22:44:45.994Z,102037.55
2018-12-17T22:47:15.105Z,102033.62
2018-12-17T22:49:44.210Z,102036.25
2018-12-17T22:52:13.245Z,102034.94
2018-12-17T22:54:42.902Z,102038.45
2018-12-17T22:57:11.967Z,102033.63
2018-12-17T22:59:40.976Z,102032.32
2018-12-17T23:02:11.660Z,102035.88
2018-12-17T23:04:40.946Z,102030.17
2018-12-17T23:07:10.026Z,102034.20
2018-12-17T23:09:50.779Z,102040.41
2018-12-17T23:12:30.851Z,102036.87
2018-12-17T23:15:11.499Z,102036.48
2018-12-17T23:17:42.182Z,102037.77
2018-12-17T23:20:11.481Z,102030.66
2018-12-17T23:22:44.280Z,102028.42
2018-12-17T23:25:16.279Z,102038.19
2018-12-17T23:27:51.571Z,102027.99
2018-12-17T23:30:23.146Z,102026.30
2018-12-17T23:32:52.918Z,102031.19
2018-12-17T23:35:22.357Z,102031.58
2018-12-17T23:37:51.786Z,102022.81
2018-12-17T23:40:21.089Z,102032.09
2018-12-17T23:42:50.142Z,102032.52
2018-12-17T23:45:20.845Z,102033.87
2018-12-17T23:47:49.862Z,102038.26
2018-12-17T23:50:19.007Z,102036.47
2018-12-17T23:52:48.408Z,102038.67
2018-12-17T23:55:17.424Z,102034.28
2018-12-17T23:57:46.431Z,102034.27
